Twining, Michigan
Current Conditions -  °F | °C
As of 10:14 AM on Saturday 22 Nov 2014 (Local Time) from KOSC Reporting Station
Haze Haze  
Wind Chill: 20°   Ceiling: 1100
Heat Index: 31°   Visibility: 5mi
Dew Point: 30°   Wind: 17mph
Humidity: 96%   Direction: 220°SW
Pressure: 29.91"   Gusts: 24mph
Location:  44.11°N, 83.81°W
Report Text: KOSC 221514Z AUTO 22015G21KT 5SM BR OVC011 00/M01 A2991 RMK AO2 T10041010
Loading
Personal Weather Stations






























Interactive Weather Map New forecast layout! Learn more

10-Day Weather Forecast

Advertisements
Track Severe Weather on mobile